Time;durP1;ratioP1;P1;durP2;ratioP2;P2;SDS_P1;SDS_P2;PMS_P1;PMS_P2;Temp;Humidity;BMP_temperature;BMP_pressure;BME280_temperature;BME280_humidity;BME280_pressure;Samples;Min_cycle;Max_cycle;Signal;HPM_P1;HPM_P2
2022/01/07 00:01:27;;;;;;;28.10;9.58;;;;;;;3.07;100.00;100542.48;1636132;85;21578;-88
2022/01/07 00:03:53;;;;;;;24.15;8.85;;;;;;;2.99;100.00;100538.20;1636087;86;21035;-87
2022/01/07 00:06:19;;;;;;;31.40;9.30;;;;;;;2.97;100.00;100529.59;1636301;86;20977;-88
2022/01/07 00:08:45;;;;;;;27.40;9.60;;;;;;;2.97;100.00;100541.58;1636296;85;21075;-88
2022/01/07 00:11:14;;;;;;;26.68;9.30;;;;;;;2.96;100.00;100541.28;1636312;85;21632;-88
2022/01/07 00:13:40;;;;;;;21.93;8.55;;;;;;;2.93;100.00;100542.52;1635986;85;21068;-87
2022/01/07 00:16:06;;;;;;;26.30;8.85;;;;;;;2.89;100.00;100541.32;1636278;85;21111;-88
2022/01/07 00:18:33;;;;;;;26.25;9.15;;;;;;;2.89;100.00;100540.51;1636139;85;21458;-88
2022/01/07 00:20:59;;;;;;;25.82;8.48;;;;;;;2.85;100.00;100541.41;1636498;86;21102;-87
2022/01/07 00:23:25;;;;;;;23.80;8.30;;;;;;;2.83;100.00;100543.49;1636043;85;22378;-87
2022/01/07 00:25:52;;;;;;;25.23;8.90;;;;;;;2.79;100.00;100538.27;1636100;85;21143;-88
2022/01/07 00:28:19;;;;;;;24.37;9.08;;;;;;;2.77;100.00;100542.19;1636051;85;21521;-88
2022/01/07 00:30:45;;;;;;;27.40;9.55;;;;;;;2.73;100.00;100553.22;1636162;85;21647;-87
2022/01/07 00:33:11;;;;;;;26.48;8.70;;;;;;;2.72;100.00;100543.62;1615567;86;21043;-87
2022/01/07 00:35:38;;;;;;;30.37;9.10;;;;;;;2.70;100.00;100548.32;1636291;85;21496;-87
2022/01/07 00:38:05;;;;;;;30.70;9.98;;;;;;;2.68;100.00;100547.73;1636047;85;21152;-87
2022/01/07 00:40:32;;;;;;;27.90;10.35;;;;;;;2.69;100.00;100539.23;1636204;85;21028;-88
2022/01/07 00:42:58;;;;;;;28.52;10.70;;;;;;;2.69;100.00;100541.89;1636802;85;21074;-88
2022/01/07 00:45:25;;;;;;;31.60;10.53;;;;;;;2.70;100.00;100540.34;1638061;85;21539;-88
2022/01/07 00:47:54;;;;;;;34.90;11.20;;;;;;;2.72;100.00;100546.28;1637951;85;21935;-88
2022/01/07 00:50:21;;;;;;;32.25;10.28;;;;;;;2.72;100.00;100548.13;1617358;85;21571;-87
2022/01/07 00:52:48;;;;;;;34.75;10.40;;;;;;;2.73;100.00;100559.88;1638319;85;21564;-88
2022/01/07 00:55:15;;;;;;;34.13;10.48;;;;;;;2.72;100.00;100568.08;1638163;85;21512;-87
2022/01/07 00:57:41;;;;;;;30.50;10.18;;;;;;;2.71;100.00;100569.93;1638042;85;21149;-88
2022/01/07 01:00:14;;;;;;;29.32;10.28;;;;;;;2.69;100.00;100571.16;1617564;85;21138;-88
2022/01/07 01:02:42;;;;;;;26.95;9.33;;;;;;;2.68;100.00;100571.68;1637951;85;21007;-88
2022/01/07 01:05:11;;;;;;;26.52;9.53;;;;;;;2.66;100.00;100581.70;1637871;85;21052;-87
2022/01/07 01:07:37;;;;;;;29.30;10.03;;;;;;;2.65;100.00;100581.92;1637994;85;21528;-87
2022/01/07 01:10:07;;;;;;;28.75;10.03;;;;;;;2.62;100.00;100591.66;1638038;85;21043;-87
2022/01/07 01:12:39;;;;;;;30.43;10.35;;;;;;;2.57;100.00;100594.92;1638056;85;21146;-88
2022/01/07 01:15:09;;;;;;;27.35;9.18;;;;;;;2.56;100.00;100592.45;1638375;85;21593;-88
2022/01/07 01:17:35;;;;;;;29.37;9.98;;;;;;;2.56;100.00;100592.45;1637942;85;21087;-88
2022/01/07 01:20:05;;;;;;;28.35;10.13;;;;;;;2.52;100.00;100589.39;1637954;85;21590;-88
2022/01/07 01:22:32;;;;;;;27.37;9.25;;;;;;;2.49;100.00;100584.48;1638032;85;21032;-88
2022/01/07 01:24:58;;;;;;;32.23;10.20;;;;;;;2.44;100.00;100575.82;1638311;85;21175;-88
2022/01/07 01:27:24;;;;;;;29.02;9.45;;;;;;;2.42;100.00;100586.35;1638036;85;20957;-88
2022/01/07 01:29:50;;;;;;;29.70;10.25;;;;;;;2.38;100.00;100583.78;1637973;85;21485;-88
2022/01/07 01:32:16;;;;;;;25.05;9.15;;;;;;;2.35;100.00;100580.20;1638097;85;21088;-88
2022/01/07 01:34:43;;;;;;;30.80;9.58;;;;;;;2.33;100.00;100581.75;1638035;85;21044;-87
2022/01/07 01:37:09;;;;;;;29.42;10.00;;;;;;;2.32;100.00;100581.95;1637977;85;21089;-88
2022/01/07 01:39:36;;;;;;;25.62;8.90;;;;;;;2.27;100.00;100570.62;1638155;85;21044;-88
2022/01/07 01:42:02;;;;;;;28.15;9.55;;;;;;;2.25;100.00;100572.66;1637781;85;21626;-88
2022/01/07 01:44:28;;;;;;;24.77;8.95;;;;;;;2.21;100.00;100568.27;1635972;85;21059;-87
2022/01/07 01:46:56;;;;;;;25.20;9.58;;;;;;;2.19;100.00;100575.62;1636216;85;21012;-88
2022/01/07 01:49:22;;;;;;;30.25;9.88;;;;;;;2.17;100.00;100571.01;1635725;86;21158;-88
2022/01/07 01:51:49;;;;;;;28.12;10.30;;;;;;;2.16;100.00;100567.24;1635941;86;21560;-88
2022/01/07 01:54:15;;;;;;;27.55;9.08;;;;;;;2.11;100.00;100563.86;1636097;86;21027;-87
2022/01/07 01:56:41;;;;;;;31.57;9.88;;;;;;;2.12;100.00;100569.98;1636579;85;21039;-88
2022/01/07 01:59:09;;;;;;;29.27;9.73;;;;;;;2.12;100.00;100562.86;1636196;85;21567;-87
2022/01/07 02:01:35;;;;;;;23.32;9.35;;;;;;;2.12;100.00;100564.67;1636287;85;22272;-88
2022/01/07 02:04:02;;;;;;;31.80;9.28;;;;;;;2.10;100.00;100568.06;1636041;86;21146;-88
2022/01/07 02:06:28;;;;;;;29.00;10.20;;;;;;;2.09;100.00;100573.05;1636415;85;21356;-88
2022/01/07 02:08:55;;;;;;;31.90;10.05;;;;;;;2.07;100.00;100571.95;1636355;85;21029;-87
2022/01/07 02:11:21;;;;;;;24.55;8.68;;;;;;;2.07;100.00;100581.25;1636381;85;20929;-88
2022/01/07 02:13:48;;;;;;;30.08;9.73;;;;;;;2.07;100.00;100575.93;1636475;85;21083;-87
2022/01/07 02:16:17;;;;;;;26.55;9.33;;;;;;;2.08;100.00;100572.76;1636127;85;21096;-87
2022/01/07 02:18:43;;;;;;;29.75;10.70;;;;;;;2.06;100.00;100568.99;1636319;85;21320;-87
2022/01/07 02:21:11;;;;;;;29.12;9.98;;;;;;;2.03;100.00;100563.57;1636416;86;21102;-88
2022/01/07 02:23:37;;;;;;;32.10;10.58;;;;;;;2.04;100.00;100578.48;1636324;85;21091;-88
2022/01/07 02:26:03;;;;;;;28.27;9.45;;;;;;;2.03;100.00;100580.03;1636311;85;21252;-88
2022/01/07 02:28:34;;;;;;;34.65;10.28;;;;;;;2.01;100.00;100582.06;1636161;85;21084;-88
2022/01/07 02:31:00;;;;;;;31.73;10.35;;;;;;;2.00;100.00;100585.23;1636186;85;21087;-88
2022/01/07 02:33:26;;;;;;;29.27;10.30;;;;;;;1.98;100.00;100588.60;1636362;85;21350;-87
2022/01/07 02:35:52;;;;;;;24.98;9.28;;;;;;;1.99;100.00;100588.90;1636508;85;21075;-88
2022/01/07 02:38:18;;;;;;;29.42;9.40;;;;;;;1.97;100.00;100586.98;1636710;85;21164;-88
2022/01/07 02:40:44;;;;;;;31.95;11.00;;;;;;;1.98;100.00;100588.60;1636440;85;21127;-87
2022/01/07 02:43:11;;;;;;;33.18;11.43;;;;;;;1.96;100.00;100595.95;1636193;85;21544;-88
2022/01/07 02:45:37;;;;;;;31.57;11.15;;;;;;;1.94;100.00;100599.34;1636670;85;21526;-88
2022/01/07 02:48:04;;;;;;;36.42;11.40;;;;;;;1.95;100.00;100603.63;1636328;85;21680;-87
2022/01/07 02:50:37;;;;;;;34.15;10.98;;;;;;;1.94;100.00;100607.31;1636242;85;21220;-87
2022/01/07 02:53:07;;;;;;;31.62;10.50;;;;;;;1.93;100.00;100615.47;1636397;85;21083;-88
2022/01/07 02:55:34;;;;;;;31.82;11.43;;;;;;;1.91;100.00;100618.34;1636331;85;21607;-88
2022/01/07 02:58:00;;;;;;;35.13;11.57;;;;;;;1.90;100.00;100611.89;1636073;85;21016;-87
2022/01/07 03:00:28;;;;;;;32.63;11.08;;;;;;;1.89;100.00;100614.25;1635982;85;21161;-87
2022/01/07 03:02:56;;;;;;;31.97;10.95;;;;;;;1.88;100.00;100608.61;1636322;85;21182;-88
2022/01/07 03:05:22;;;;;;;33.45;11.18;;;;;;;1.88;100.00;100626.69;1636013;85;21053;-87
2022/01/07 03:07:49;;;;;;;36.45;11.25;;;;;;;1.85;100.00;100622.30;1636350;85;21575;-87
2022/01/07 03:10:23;;;;;;;35.10;11.35;;;;;;;1.85;100.00;100624.44;1636320;85;21024;-88
2022/01/07 03:12:49;;;;;;;40.05;12.28;;;;;;;1.85;100.00;100632.41;1557964;90;21025;-88
2022/01/07 03:15:15;;;;;;;38.80;12.85;;;;;;;1.84;100.00;100641.41;1558074;90;22027;-87
2022/01/07 03:17:42;;;;;;;41.75;13.08;;;;;;;1.82;100.00;100650.09;1558058;90;21394;-87
2022/01/07 03:20:12;;;;;;;48.63;14.10;;;;;;;1.80;100.00;100658.27;1558048;90;21013;-87
2022/01/07 03:22:40;;;;;;;48.17;14.47;;;;;;;1.80;100.00;100659.60;1558057;90;21594;-87
2022/01/07 03:25:08;;;;;;;42.53;14.50;;;;;;;1.77;100.00;100660.00;1558215;90;21683;-87
2022/01/07 03:27:34;;;;;;;47.88;15.28;;;;;;;1.74;100.00;100666.23;1557927;90;21154;-87
2022/01/07 03:30:01;;;;;;;53.78;15.43;;;;;;;1.72;100.00;100662.43;1558212;90;21170;-88
2022/01/07 03:32:27;;;;;;;59.30;16.62;;;;;;;1.71;100.00;100668.77;1558039;90;21548;-87
2022/01/07 03:34:53;;;;;;;59.73;17.10;;;;;;;1.71;100.00;100666.11;1557872;90;20909;-87
2022/01/07 03:37:20;;;;;;;52.67;16.05;;;;;;;1.70;100.00;100667.11;1558066;90;21144;-87
2022/01/07 03:39:46;;;;;;;49.13;16.48;;;;;;;1.69;100.00;100672.64;1557986;90;22043;-87
2022/01/07 03:42:13;;;;;;;55.75;16.60;;;;;;;1.68;100.00;100676.33;1557921;90;21103;-87
2022/01/07 03:44:39;;;;;;;60.40;16.90;;;;;;;1.67;100.00;100678.14;1559410;90;21214;-87
2022/01/07 03:47:05;;;;;;;63.50;17.23;;;;;;;1.67;100.00;100677.33;1559723;90;20992;-87
2022/01/07 03:49:31;;;;;;;52.08;16.32;;;;;;;1.66;100.00;100673.86;1559790;90;21142;-87
2022/01/07 03:51:57;;;;;;;49.85;14.83;;;;;;;1.65;100.00;100675.37;1559840;90;22193;-87
2022/01/07 03:54:23;;;;;;;49.45;15.25;;;;;;;1.63;100.00;100687.53;1559694;90;20912;-87
2022/01/07 03:56:49;;;;;;;54.03;15.53;;;;;;;1.62;100.00;100691.22;1559794;90;21745;-87
2022/01/07 03:59:15;;;;;;;52.40;14.90;;;;;;;1.61;100.00;100692.22;1559492;90;21147;-87
2022/01/07 04:01:41;;;;;;;48.83;15.18;;;;;;;1.61;100.00;100687.42;1559975;90;21087;-87
2022/01/07 04:04:07;;;;;;;43.70;14.05;;;;;;;1.59;100.00;100693.76;1559801;90;21989;-87
2022/01/07 04:06:33;;;;;;;43.80;13.80;;;;;;;1.60;100.00;100698.55;1539723;90;20904;-87
2022/01/07 04:08:59;;;;;;;49.38;14.45;;;;;;;1.61;100.00;100702.03;1573295;85;20916;-87
2022/01/07 04:11:31;;;;;;;47.33;13.62;;;;;;;1.61;100.00;100704.69;1638010;85;20909;-87
2022/01/07 04:13:57;;;;;;;40.03;12.75;;;;;;;1.61;100.00;100714.80;1637794;85;21036;-87
2022/01/07 04:16:23;;;;;;;43.15;13.10;;;;;;;1.62;100.00;100710.30;1638230;85;21028;-87
2022/01/07 04:18:49;;;;;;;41.18;12.68;;;;;;;1.61;100.00;100716.63;1638055;85;20984;-87
2022/01/07 04:21:15;;;;;;;41.55;12.53;;;;;;;1.59;100.00;100719.50;1638271;86;21564;-87
2022/01/07 04:23:41;;;;;;;40.45;12.28;;;;;;;1.57;100.00;100718.36;1638028;85;20928;-86
2022/01/07 04:26:07;;;;;;;42.70;13.00;;;;;;;1.54;100.00;100713.44;1638117;85;21067;-88
2022/01/07 04:28:33;;;;;;;37.30;11.53;;;;;;;1.50;100.00;100716.20;1617444;86;21814;-87
2022/01/07 04:30:59;;;;;;;41.92;12.35;;;;;;;1.46;100.00;100726.88;1638151;84;21027;-88
2022/01/07 04:33:27;;;;;;;35.45;11.40;;;;;;;1.39;100.00;100731.34;1638105;85;21083;-87
2022/01/07 04:35:55;;;;;;;36.53;11.80;;;;;;;1.36;100.00;100733.06;1637740;85;21040;-87
2022/01/07 04:38:22;;;;;;;38.23;12.03;;;;;;;1.30;100.00;100736.50;1637990;85;21083;-88
2022/01/07 04:40:48;;;;;;;44.98;11.20;;;;;;;1.26;100.00;100741.36;1637956;85;21188;-87
2022/01/07 04:43:14;;;;;;;38.23;11.80;;;;;;;1.21;100.00;100742.98;1637696;85;21072;-87
2022/01/07 04:45:41;;;;;;;38.40;11.43;;;;;;;1.18;100.00;100752.16;1636236;85;21504;-87
2022/01/07 04:48:07;;;;;;;37.03;11.33;;;;;;;1.13;100.00;100752.72;1636368;86;21080;-88
2022/01/07 04:50:34;;;;;;;42.15;12.05;;;;;;;1.11;100.00;100756.06;1636185;86;20996;-88
2022/01/07 04:53:00;;;;;;;35.20;11.18;;;;;;;1.09;100.00;100759.95;1636004;85;21604;-88
2022/01/07 04:55:36;;;;;;;30.15;10.45;;;;;;;1.06;100.00;100765.14;1636097;86;21063;-88
2022/01/07 04:57:59;;;;;;;30.33;11.10;;;;;;;1.03;100.00;100772.64;1632897;86;21655;-88
2022/01/07 05:00:25;;;;;;;33.70;10.85;;;;;;;1.02;100.00;100769.68;1636206;85;20988;-88
2022/01/07 05:02:51;;;;;;;37.95;10.82;;;;;;;0.97;100.00;100776.91;1635851;86;21078;-88
2022/01/07 05:05:18;;;;;;;33.80;10.53;;;;;;;0.94;100.00;100779.10;1636017;85;22382;-87
2022/01/07 05:07:44;;;;;;;31.45;10.58;;;;;;;0.89;100.00;100777.86;1636020;85;21109;-87
2022/01/07 05:10:13;;;;;;;33.20;10.72;;;;;;;0.86;100.00;100787.52;1636133;85;21051;-88
2022/01/07 05:12:42;;;;;;;32.30;10.65;;;;;;;0.86;100.00;100788.85;1636340;85;21602;-88
2022/01/07 05:15:10;;;;;;;32.63;10.65;;;;;;;0.84;100.00;100790.87;1636156;85;21008;-88
2022/01/07 05:17:37;;;;;;;36.42;11.18;;;;;;;0.82;100.00;100797.38;1636416;85;21067;-88
2022/01/07 05:20:05;;;;;;;32.33;10.85;;;;;;;0.80;100.00;100806.05;1615313;87;21079;-88
2022/01/07 05:22:34;;;;;;;35.73;11.33;;;;;;;0.80;100.00;100806.86;1636115;85;22168;-89
2022/01/07 05:25:00;;;;;;;31.23;10.38;;;;;;;0.80;100.00;100807.38;1636108;85;21072;-89
2022/01/07 05:27:26;;;;;;;34.50;10.72;;;;;;;0.78;100.00;100814.17;1615613;87;21540;-89
2022/01/07 05:29:52;;;;;;;31.60;10.08;;;;;;;0.78;100.00;100823.46;1636294;85;21171;-88
2022/01/07 05:32:19;;;;;;;32.93;10.53;;;;;;;0.77;100.00;100822.34;1636383;85;21701;-89
2022/01/07 05:34:45;;;;;;;30.02;10.68;;;;;;;0.77;100.00;100832.95;1635510;85;21098;-89
2022/01/07 05:37:12;;;;;;;32.55;10.50;;;;;;;0.76;100.00;100832.61;1636335;85;21586;-89
2022/01/07 05:39:38;;;;;;;30.97;10.90;;;;;;;0.74;100.00;100844.75;1635692;86;21040;-88
2022/01/07 05:42:05;;;;;;;30.92;10.20;;;;;;;0.74;100.00;100850.57;1636229;86;21255;-89
2022/01/07 05:44:32;;;;;;;36.05;11.73;;;;;;;0.75;100.00;100850.36;1635937;85;21017;-89
2022/01/07 05:47:00;;;;;;;34.58;10.65;;;;;;;0.76;100.00;100845.36;1636050;86;21170;-89
2022/01/07 05:49:26;;;;;;;37.03;10.90;;;;;;;0.78;100.00;100852.64;1557687;90;21327;-89
2022/01/07 05:51:55;;;;;;;33.60;10.55;;;;;;;0.78;100.00;100853.97;1557668;90;21119;-89
2022/01/07 05:54:20;;;;;;;37.67;10.20;;;;;;;0.79;100.00;100857.43;1557247;90;21106;-89
2022/01/07 05:56:50;;;;;;;28.02;9.90;;;;;;;0.82;100.00;100865.02;1538106;92;21540;-89
2022/01/07 05:59:16;;;;;;;33.98;11.15;;;;;;;0.88;100.00;100875.71;1557752;90;21143;-89
2022/01/07 06:01:42;;;;;;;33.85;11.60;;;;;;;1.01;100.00;100888.78;1557779;90;21587;-89
2022/01/07 06:04:08;;;;;;;29.00;9.70;;;;;;;1.41;100.00;100893.09;1557944;90;21095;-90
2022/01/07 06:06:34;;;;;;;28.95;10.75;;;;;;;1.86;100.00;100890.48;1557705;90;21901;-90
2022/01/07 06:09:00;;;;;;;25.85;9.88;;;;;;;1.90;100.00;100887.73;1558361;90;21090;-90
2022/01/07 06:11:26;;;;;;;29.23;11.08;;;;;;;2.03;100.00;100891.81;1557953;90;21646;-91
2022/01/07 06:13:52;;;;;;;29.70;10.28;;;;;;;2.50;100.00;100897.34;1557790;90;21146;-91
2022/01/07 06:16:18;;;;;;;26.65;10.23;;;;;;;3.19;100.00;100895.75;1557699;90;21045;-91
2022/01/07 06:18:59;;;;;;;25.00;10.58;;;;;;;3.63;100.00;100895.64;1557875;90;21193;-92
2022/01/07 06:21:30;;;;;;;30.05;10.20;;;;;;;4.26;100.00;100893.75;1557729;90;21008;-89
2022/01/07 06:23:56;;;;;;;28.52;10.35;;;;;;;5.32;100.00;100894.20;1538942;91;21124;-91
2022/01/07 06:26:24;;;;;;;21.00;9.05;;;;;;;6.43;100.00;100896.00;1539388;91;20926;-91
2022/01/07 06:28:50;;;;;;;25.97;9.08;;;;;;;7.02;100.00;100898.92;1553745;91;21116;-90
2022/01/07 06:31:16;;;;;;;23.07;9.40;;;;;;;7.34;100.00;100895.98;1505786;95;21954;-91
2022/01/07 06:33:42;;;;;;;21.15;8.80;;;;;;;7.77;100.00;100897.01;1487962;95;21078;-90
2022/01/07 06:36:08;;;;;;;20.55;9.03;;;;;;;8.49;100.00;100895.86;1506971;95;21819;-91
2022/01/07 06:38:34;;;;;;;21.40;9.55;;;;;;;9.41;100.00;100902.39;1506709;95;21114;-89
2022/01/07 06:41:00;;;;;;;17.62;8.98;;;;;;;10.50;100.00;100905.02;1520531;94;21109;-89
2022/01/07 06:43:26;;;;;;;18.70;8.75;;;;;;;11.49;100.00;100908.39;1520620;93;21907;-89
2022/01/07 06:45:52;;;;;;;17.00;8.45;;;;;;;12.23;100.00;100903.48;1528859;92;20964;-89
2022/01/07 06:48:18;;;;;;;20.97;8.13;;;;;;;12.83;100.00;100908.05;1547658;92;21091;-88
2022/01/07 06:50:45;;;;;;;17.07;8.93;;;;;;;13.71;100.00;100917.33;1544175;92;21156;-89
2022/01/07 06:53:11;;;;;;;15.10;8.03;;;;;;;14.48;100.00;100917.12;1547516;92;21110;-89
2022/01/07 06:55:37;;;;;;;12.93;6.97;;;;;;;15.08;100.00;100917.09;1547369;92;21159;-89
2022/01/07 06:58:03;;;;;;;13.65;7.40;;;;;;;15.44;100.00;100923.89;1527523;92;21074;-89
2022/01/07 07:00:29;;;;;;;15.45;7.72;;;;;;;16.10;100.00;100930.62;1559612;91;21142;-89
2022/01/07 07:02:55;;;;;;;15.32;8.15;;;;;;;16.67;100.00;100930.75;1564795;91;21182;-89
2022/01/07 07:05:21;;;;;;;13.93;7.70;;;;;;;16.97;100.00;100932.30;1556958;91;21030;-90
2022/01/07 07:07:47;;;;;;;14.07;8.20;;;;;;;17.57;100.00;100937.08;1551260;92;21251;-89
2022/01/07 07:10:13;;;;;;;14.33;7.55;;;;;;;18.18;94.12;100933.02;1557963;92;21037;-89
2022/01/07 07:12:39;;;;;;;14.87;8.25;;;;;;;18.26;94.07;100935.05;1558509;91;21101;-89
2022/01/07 07:15:06;;;;;;;13.55;7.67;;;;;;;18.82;91.27;100945.66;1557999;91;21021;-90
2022/01/07 07:17:32;;;;;;;14.05;7.87;;;;;;;19.06;87.91;100935.83;1558099;92;21164;-89
2022/01/07 07:19:58;;;;;;;11.53;7.50;;;;;;;19.40;74.61;100935.03;1558094;92;21278;-90
2022/01/07 07:22:24;;;;;;;14.85;7.90;;;;;;;19.80;71.80;100937.34;1557633;92;21089;-90
2022/01/07 07:24:50;;;;;;;13.55;7.53;;;;;;;20.18;68.05;100934.13;1566267;88;21117;-90
2022/01/07 07:27:16;;;;;;;11.93;7.25;;;;;;;20.64;65.37;100941.84;1631302;88;20923;-89
2022/01/07 07:29:41;;;;;;;13.10;8.13;;;;;;;20.87;56.09;100942.53;1657059;86;20970;-89
2022/01/07 07:32:09;;;;;;;16.02;8.53;;;;;;;21.04;59.88;100944.48;1657742;86;21169;-89
2022/01/07 07:37:04;;;;;;;12.93;7.87;;;;;;;21.74;51.31;100950.75;1656912;85;21022;-90
2022/01/07 07:39:31;;;;;;;13.50;7.78;;;;;;;21.93;50.80;100946.81;1657106;86;21077;-89
2022/01/07 07:41:58;;;;;;;22.80;8.45;;;;;;;22.06;47.54;100945.81;1657040;85;21046;-90
2022/01/07 07:44:24;;;;;;;11.78;6.97;;;;;;;21.71;46.94;100953.34;1669167;83;21889;-90
2022/01/07 07:46:51;;;;;;;12.35;7.28;;;;;;;21.45;46.76;100956.13;1692510;84;20900;-90
2022/01/07 07:49:18;;;;;;;13.45;8.25;;;;;;;21.57;46.17;100960.95;1692066;84;21019;-90
2022/01/07 07:51:46;;;;;;;12.37;7.72;;;;;;;21.78;46.98;100959.92;1692319;84;21060;-89
2022/01/07 07:54:13;;;;;;;13.30;7.50;;;;;;;22.45;45.17;100961.73;1692074;84;21106;-89
2022/01/07 07:56:39;;;;;;;10.38;7.00;;;;;;;22.59;43.07;100958.19;1692605;84;21154;-90
2022/01/07 07:59:05;;;;;;;12.82;7.97;;;;;;;22.42;41.83;100959.08;1692612;83;21556;-90
2022/01/07 08:01:32;;;;;;;11.90;7.03;;;;;;;22.25;41.14;100962.48;1692558;83;21066;-89
2022/01/07 08:03:58;;;;;;;12.47;7.83;;;;;;;22.30;41.20;100963.67;1692582;84;20959;-89
2022/01/07 08:06:24;;;;;;;11.25;7.30;;;;;;;22.47;40.83;100971.80;1692573;83;20885;-90
2022/01/07 08:08:50;;;;;;;13.28;7.42;;;;;;;22.81;40.73;100971.38;1692664;84;21808;-90
2022/01/07 08:11:16;;;;;;;13.90;7.08;;;;;;;22.89;40.01;100978.20;1692412;84;20892;-90
2022/01/07 08:16:28;;;;;;;10.43;6.28;;;;;;;23.11;37.02;100989.45;1692372;84;21086;-89
2022/01/07 08:18:57;;;;;;;9.08;6.15;;;;;;;22.69;38.94;100984.47;1674862;84;21038;-88
2022/01/07 08:21:27;;;;;;;9.43;6.12;;;;;;;23.01;36.80;100989.06;1692430;83;21116;-90
2022/01/07 08:23:54;;;;;;;10.88;6.50;;;;;;;22.20;36.35;100976.61;1674834;84;20999;-89
2022/01/07 08:26:22;;;;;;;9.33;6.28;;;;;;;21.96;37.22;100987.33;1692412;84;21011;-89
2022/01/07 08:28:53;;;;;;;11.28;6.25;;;;;;;22.18;36.47;100982.22;1674590;84;21011;-88
2022/01/07 08:31:27;;;;;;;10.78;6.45;;;;;;;21.77;35.22;100995.94;1689536;84;21495;-88
2022/01/07 08:36:34;;;;;;;12.70;6.12;;;;;;;17.21;38.09;101008.48;1676947;84;20956;-88
2022/01/07 08:39:01;;;;;;;17.07;7.70;;;;;;;15.33;39.59;101016.03;1692501;84;21159;-87
2022/01/07 08:41:33;;;;;;;12.30;6.90;;;;;;;13.80;40.99;101009.15;1692476;84;21003;-87
2022/01/07 08:43:59;;;;;;;14.00;6.65;;;;;;;12.25;43.09;101021.05;1689324;83;21063;-88
2022/01/07 08:46:25;;;;;;;14.03;6.55;;;;;;;11.12;46.22;101023.27;1686896;82;21698;-88
2022/01/07 08:48:52;;;;;;;10.05;5.65;;;;;;;10.33;47.51;101034.91;1690793;83;21092;-88
2022/01/07 08:51:20;;;;;;;12.82;5.95;;;;;;;9.62;49.65;101034.52;1689229;83;21074;-88
2022/01/07 08:53:46;;;;;;;13.10;5.37;;;;;;;8.27;54.23;101035.29;1699020;83;21136;-88
2022/01/07 08:56:12;;;;;;;11.15;5.72;;;;;;;8.27;54.23;101035.29;1713610;83;21079;-89
2022/01/07 08:58:38;;;;;;;12.05;5.95;;;;;;;7.73;60.12;101038.84;1663856;84;21147;-88
2022/01/07 09:01:04;;;;;;;12.20;5.85;;;;;;;7.37;65.33;101045.12;1687795;83;20888;-89
2022/01/07 09:03:30;;;;;;;12.03;5.75;;;;;;;7.14;70.59;101044.49;1686186;83;21022;-88
2022/01/07 09:05:57;;;;;;;12.90;5.70;;;;;;;7.09;77.25;101040.35;1686715;83;21003;-89
2022/01/07 09:08:23;;;;;;;13.30;6.03;;;;;;;6.94;80.35;101044.77;1692359;84;21514;-88
2022/01/07 09:10:49;;;;;;;13.48;5.75;;;;;;;6.86;80.97;101047.73;1690585;84;21023;-88
2022/01/07 09:13:15;;;;;;;15.05;5.90;;;;;;;6.73;89.96;101047.34;1691827;84;21066;-87
2022/01/07 09:15:41;;;;;;;15.25;5.70;;;;;;;6.56;88.32;101050.34;1692231;84;21090;-88
2022/01/07 09:18:10;;;;;;;10.68;5.08;;;;;;;6.35;91.36;101069.79;1692494;84;20967;-88
2022/01/07 09:20:43;;;;;;;10.13;5.15;;;;;;;6.30;94.08;101072.30;1692032;84;21004;-87
2022/01/07 09:23:09;;;;;;;12.70;5.17;;;;;;;6.14;91.39;101074.17;1617085;87;21632;-88
2022/01/07 09:25:36;;;;;;;11.75;5.58;;;;;;;5.89;96.33;101077.63;1617620;88;20955;-90
2022/01/07 09:28:05;;;;;;;11.65;5.53;;;;;;;5.74;99.08;101085.15;1596026;87;21058;-89
2022/01/07 09:30:31;;;;;;;12.15;5.37;;;;;;;5.65;99.50;101082.43;1617536;88;21088;-89
2022/01/07 09:32:58;;;;;;;15.35;5.42;;;;;;;5.44;100.00;101086.22;1600546;89;21113;-88
2022/01/07 09:35:24;;;;;;;11.38;5.30;;;;;;;5.29;100.00;101095.85;1600712;89;21099;-88
2022/01/07 09:37:50;;;;;;;11.10;4.87;;;;;;;5.14;100.00;101093.45;1600558;89;21083;-90
2022/01/07 09:40:18;;;;;;;10.38;4.87;;;;;;;4.92;100.00;101095.59;1602081;88;21181;-89
2022/01/07 09:42:56;;;;;;;9.83;4.80;;;;;;;4.80;100.00;101093.78;1609986;87;21744;-87
2022/01/07 09:45:25;;;;;;;11.63;4.65;;;;;;;4.80;100.00;101096.45;1608068;88;21565;-88
2022/01/07 09:47:53;;;;;;;9.80;4.83;;;;;;;4.86;100.00;101099.62;1607479;87;21174;-88
2022/01/07 09:50:24;;;;;;;10.63;4.97;;;;;;;4.78;100.00;101104.14;1607310;89;21014;-89
2022/01/07 09:52:50;;;;;;;12.35;4.70;;;;;;;4.86;100.00;101103.62;1604973;89;21112;-89
2022/01/07 09:55:16;;;;;;;12.90;5.08;;;;;;;4.84;100.00;101100.34;1607619;89;21077;-89
2022/01/07 09:57:43;;;;;;;10.48;4.20;;;;;;;4.79;100.00;101104.95;1595678;87;21069;-89
2022/01/07 10:00:16;;;;;;;10.38;4.35;;;;;;;4.77;100.00;101101.17;1623964;87;21929;-88
2022/01/07 10:03:03;;;;;;;10.38;4.50;;;;;;;4.78;100.00;101112.15;1620759;87;21113;-89
2022/01/07 10:05:30;;;;;;;9.58;4.12;;;;;;;4.78;100.00;101111.33;1571128;89;21081;-90
2022/01/07 10:08:23;;;;;;;9.15;4.12;;;;;;;4.76;100.00;101107.55;1525001;93;21074;-89
2022/01/07 10:11:20;;;;;;;10.95;4.40;;;;;;;4.82;100.00;101111.21;1545594;91;21693;-88
2022/01/07 10:14:11;;;;;;;10.55;4.20;;;;;;;4.78;100.00;101115.34;1500065;94;21244;-89
2022/01/07 10:16:59;;;;;;;8.80;3.95;;;;;;;4.89;100.00;101113.37;1498223;94;21152;-89
2022/01/07 10:19:34;;;;;;;7.58;3.58;;;;;;;4.88;100.00;101121.09;1524401;88;21053;-89
2022/01/07 10:22:05;;;;;;;8.95;4.22;;;;;;;4.88;100.00;101120.23;1598518;88;21094;-89
2022/01/07 10:24:31;;;;;;;7.15;3.30;;;;;;;4.85;100.00;101125.48;1583466;88;21100;-89
2022/01/07 10:27:14;;;;;;;5.58;3.17;;;;;;;4.86;100.00;101124.47;1590094;88;21163;-88
2022/01/07 10:29:50;;;;;;;10.53;3.53;;;;;;;4.77;100.00;101125.72;1587544;90;21115;-89
2022/01/07 10:32:30;;;;;;;12.25;3.67;;;;;;;4.74;100.00;101136.82;1588136;90;21552;-90
2022/01/07 10:35:13;;;;;;;7.45;3.40;;;;;;;4.65;100.00;101126.05;1582221;90;21153;-92
2022/01/07 10:38:01;;;;;;;11.35;4.25;;;;;;;4.60;100.00;101131.19;1591168;89;22628;-91
2022/01/07 10:40:35;;;;;;;6.35;3.20;;;;;;;4.50;100.00;101124.42;1546441;90;21337;-90
2022/01/07 10:43:21;;;;;;;9.50;3.75;;;;;;;4.44;100.00;101135.08;1557539;91;21795;-90
2022/01/07 10:45:55;;;;;;;5.95;2.95;;;;;;;4.46;100.00;101134.36;1554472;91;21070;-94
2022/01/07 10:48:26;;;;;;;8.33;3.25;;;;;;;4.52;100.00;101136.20;1525281;94;21168;-90
2022/01/07 10:50:59;;;;;;;6.62;3.10;;;;;;;4.62;100.00;101134.45;1524806;94;21156;-92
2022/01/07 10:53:32;;;;;;;8.07;2.80;;;;;;;4.61;100.00;101142.97;1550258;91;21137;-90
2022/01/07 10:56:12;;;;;;;7.78;2.65;;;;;;;4.65;100.00;101142.07;1558399;91;21132;-90
2022/01/07 10:59:02;;;;;;;4.83;2.45;;;;;;;4.69;100.00;101149.44;1553455;92;21076;-91
2022/01/07 11:01:45;;;;;;;7.92;2.85;;;;;;;4.88;100.00;101149.13;1544714;91;21587;-89
2022/01/07 11:04:21;;;;;;;6.90;2.50;;;;;;;4.90;100.00;101167.07;1521309;93;21165;-90
2022/01/07 11:06:53;;;;;;;6.65;2.40;;;;;;;4.87;100.00;101168.01;1520843;94;21126;-89
2022/01/07 11:09:20;;;;;;;4.80;2.33;;;;;;;4.85;100.00;101158.86;1520488;94;21118;-89
2022/01/07 11:12:00;;;;;;;4.42;1.95;;;;;;;4.91;100.00;101160.72;1521095;94;21138;-90
2022/01/07 11:14:30;;;;;;;6.12;2.02;;;;;;;4.89;100.00;101161.44;1520876;94;21146;-89
2022/01/07 11:17:08;;;;;;;4.33;2.00;;;;;;;4.73;100.00;101163.19;1520964;94;21613;-89
2022/01/07 11:19:39;;;;;;;4.90;2.08;;;;;;;4.66;100.00;101171.73;1504383;93;21126;-89
2022/01/07 11:22:11;;;;;;;4.12;2.08;;;;;;;4.55;100.00;101168.64;1442453;97;21352;-89
2022/01/07 11:24:42;;;;;;;3.85;2.25;;;;;;;4.36;100.00;101172.14;1460152;96;21591;-87
2022/01/07 11:27:20;;;;;;;4.37;2.15;;;;;;;4.36;100.00;101179.33;1462100;98;21088;-88